createdAt,value
2018-05-01T00:00:09.098Z,80.23
2018-05-01T00:02:37.305Z,81.47
2018-05-01T00:05:05.994Z,81.40
2018-05-01T00:07:34.187Z,81.97
2018-05-01T00:10:02.392Z,82.43
2018-05-01T00:12:31.046Z,82.53
2018-05-01T00:14:59.284Z,81.91
2018-05-01T00:17:27.481Z,82.43
2018-05-01T00:19:56.174Z,82.64
2018-05-01T00:22:24.394Z,82.28
2018-05-01T00:24:52.550Z,81.72
2018-05-01T00:27:21.184Z,82.63
2018-05-01T00:29:49.452Z,82.12
2018-05-01T00:32:17.686Z,81.70
2018-05-01T00:34:46.361Z,81.83
2018-05-01T00:37:14.636Z,83.21
2018-05-01T00:39:42.844Z,82.72
2018-05-01T00:42:11.884Z,82.80
2018-05-01T00:44:40.520Z,81.99
2018-05-01T00:47:08.702Z,82.15
2018-05-01T00:49:36.899Z,81.67
2018-05-01T00:52:05.656Z,83.09
2018-05-01T00:54:33.897Z,83.28
2018-05-01T00:57:02.131Z,83.96
2018-05-01T00:59:30.696Z,83.72
2018-05-01T01:01:59.795Z,82.92
2018-05-01T01:04:28.255Z,82.20
2018-05-01T01:06:56.877Z,82.19
2018-05-01T01:09:25.149Z,82.87
2018-05-01T01:11:53.395Z,83.42
2018-05-01T01:14:21.980Z,82.26
2018-05-01T01:16:50.184Z,83.62
2018-05-01T01:19:18.480Z,82.91
2018-05-01T01:21:47.116Z,83.22
2018-05-01T01:24:15.329Z,82.83
2018-05-01T01:26:43.560Z,83.68
2018-05-01T01:29:12.241Z,83.62
2018-05-01T01:31:40.435Z,83.57
2018-05-01T01:34:08.764Z,83.45
2018-05-01T01:36:36.739Z,82.72
2018-05-01T01:39:04.472Z,83.40
2018-05-01T01:41:32.579Z,83.21
2018-05-01T01:44:00.280Z,82.86
2018-05-01T01:46:28.235Z,83.54
2018-05-01T01:48:55.923Z,82.75
2018-05-01T01:51:23.591Z,83.78
2018-05-01T01:53:51.828Z,83.58
2018-05-01T01:56:19.478Z,83.36
2018-05-01T01:58:47.707Z,82.95
2018-05-01T02:01:15.376Z,82.78
2018-05-01T02:03:43.658Z,81.85
2018-05-01T02:06:11.339Z,82.88
2018-05-01T02:08:39.386Z,82.63
2018-05-01T02:11:07.976Z,82.30
2018-05-01T02:13:35.761Z,82.72
2018-05-01T02:16:03.874Z,82.44
2018-05-01T02:18:31.595Z,82.69
2018-05-01T02:20:59.266Z,82.56
2018-05-01T02:23:27.377Z,82.52
2018-05-01T02:25:55.027Z,82.69
2018-05-01T02:28:23.281Z,83.02
2018-05-01T02:30:51.027Z,82.56
2018-05-01T02:33:19.109Z,83.16
2018-05-01T02:35:46.786Z,82.05
2018-05-01T02:38:14.438Z,81.30
2018-05-01T02:40:42.494Z,82.16
2018-05-01T02:43:10.169Z,82.61
2018-05-01T02:45:38.526Z,81.31
2018-05-01T02:48:06.197Z,81.85
2018-05-01T02:50:34.294Z,81.68
2018-05-01T02:53:01.970Z,80.61
2018-05-01T02:55:29.630Z,81.21
2018-05-01T02:57:57.774Z,80.61
2018-05-01T03:00:25.479Z,80.12
2018-05-01T03:02:53.611Z,80.19
2018-05-01T03:05:21.275Z,80.80
2018-05-01T03:07:49.391Z,79.63
2018-05-01T03:10:17.098Z,79.64
2018-05-01T03:12:44.768Z,79.59
2018-05-01T03:15:13.081Z,79.98
2018-05-01T03:17:40.751Z,79.58
2018-05-01T03:20:09.065Z,81.02
2018-05-01T03:22:36.778Z,79.94
2018-05-01T03:25:04.840Z,80.49
2018-05-01T03:27:32.553Z,80.14
2018-05-01T03:30:00.194Z,79.52
2018-05-01T03:32:28.369Z,79.47
2018-05-01T03:34:56.037Z,80.33
2018-05-01T03:37:24.096Z,80.15
2018-05-01T03:39:51.779Z,80.38
2018-05-01T03:42:19.922Z,79.46
2018-05-01T03:44:47.639Z,78.45
2018-05-01T03:47:15.330Z,79.17
2018-05-01T03:49:43.574Z,78.44
2018-05-01T03:52:11.244Z,78.09
2018-05-01T03:54:39.462Z,78.29
2018-05-01T03:57:07.131Z,78.20
2018-05-01T03:59:35.423Z,78.51
2018-05-01T04:02:03.693Z,78.32
2018-05-01T04:04:31.353Z,78.77
2018-05-01T04:06:59.677Z,79.85
2018-05-01T04:09:27.367Z,80.05
2018-05-01T04:11:55.376Z,80.46
2018-05-01T04:14:23.064Z,80.32
2018-05-01T04:16:50.740Z,79.80
2018-05-01T04:19:19.029Z,80.47
2018-05-01T04:21:46.841Z,79.71
2018-05-01T04:24:14.938Z,79.74
2018-05-01T04:26:42.637Z,79.18
2018-05-01T04:29:10.740Z,78.75
2018-05-01T04:34:12.193Z,78.09
2018-05-01T04:36:40.042Z,79.00
2018-05-01T04:39:07.740Z,77.93
2018-05-01T04:41:35.864Z,77.48
2018-05-01T04:44:03.606Z,77.36
2018-05-01T04:46:31.261Z,77.46
2018-05-01T04:48:59.366Z,77.44
2018-05-01T04:51:27.063Z,77.31
2018-05-01T04:53:55.172Z,77.04
2018-05-01T04:56:39.231Z,76.13
2018-05-01T04:59:10.815Z,76.35
2018-05-01T05:01:53.952Z,76.08
2018-05-01T05:04:28.449Z,75.79
2018-05-01T05:06:56.107Z,75.85
2018-05-01T05:09:23.829Z,75.51
2018-05-01T05:11:51.502Z,75.25
2018-05-01T05:14:19.641Z,74.38
2018-05-01T05:16:47.307Z,73.37
2018-05-01T05:19:15.486Z,73.87
2018-05-01T05:21:43.161Z,73.74
2018-05-01T05:24:11.346Z,72.93
2018-05-01T05:26:39.000Z,73.38
2018-05-01T05:29:06.641Z,73.25
2018-05-01T05:31:34.877Z,72.72
2018-05-01T05:34:02.528Z,72.96
2018-05-01T05:36:30.768Z,71.99
2018-05-01T05:38:58.467Z,72.50
2018-05-01T05:41:26.603Z,71.33
2018-05-01T05:43:54.294Z,71.29
2018-05-01T05:46:21.966Z,72.17
2018-05-01T05:48:50.186Z,71.20
2018-05-01T05:51:17.850Z,70.86
2018-05-01T05:53:45.956Z,70.58
2018-05-01T05:56:13.627Z,70.63
2018-05-01T05:58:41.839Z,69.94
2018-05-01T06:01:09.581Z,70.66
2018-05-01T06:03:37.303Z,70.09
2018-05-01T06:06:05.303Z,69.39
2018-05-01T06:08:32.982Z,69.37
2018-05-01T06:11:01.211Z,70.35
2018-05-01T06:13:29.008Z,69.91
2018-05-01T06:15:57.068Z,70.09
2018-05-01T06:18:26.176Z,69.15
2018-05-01T06:20:53.834Z,69.42
2018-05-01T06:23:21.521Z,69.52
2018-05-01T06:25:49.195Z,69.87
2018-05-01T06:28:17.154Z,68.63
2018-05-01T06:30:44.875Z,68.88
2018-05-01T06:33:12.551Z,68.97
2018-05-01T06:35:40.855Z,69.00
2018-05-01T06:38:08.550Z,69.16
2018-05-01T06:40:36.636Z,68.94
2018-05-01T06:43:04.311Z,68.87
2018-05-01T06:45:32.535Z,68.70
2018-05-01T06:48:01.582Z,68.44
2018-05-01T06:50:29.234Z,68.64
2018-05-01T06:52:56.952Z,67.90
2018-05-01T06:55:24.620Z,67.14
2018-05-01T06:57:52.709Z,67.19
2018-05-01T07:00:20.411Z,66.28
2018-05-01T07:02:48.076Z,66.12
2018-05-01T07:05:16.252Z,66.25
2018-05-01T07:07:43.912Z,65.19
2018-05-01T07:10:12.508Z,66.19
2018-05-01T07:12:40.145Z,66.00
2018-05-01T07:15:07.897Z,63.72
2018-05-01T07:17:35.580Z,63.59
2018-05-01T07:20:03.264Z,62.71
2018-05-01T07:22:31.377Z,62.74
2018-05-01T07:24:59.045Z,63.15
2018-05-01T07:27:27.355Z,62.05
2018-05-01T07:29:55.094Z,62.06
2018-05-01T07:32:23.255Z,61.20
2018-05-01T07:34:50.996Z,61.77
2018-05-01T07:37:18.663Z,60.66
2018-05-01T07:39:46.668Z,60.92
2018-05-01T07:42:14.363Z,62.10
2018-05-01T07:44:42.597Z,61.40
2018-05-01T07:47:10.271Z,60.61
2018-05-01T07:49:38.461Z,60.65
2018-05-01T07:52:06.186Z,60.59
2018-05-01T07:54:33.849Z,60.42
2018-05-01T07:57:01.970Z,60.37
2018-05-01T07:59:29.647Z,59.58
2018-05-01T08:01:58.670Z,60.25
2018-05-01T08:04:27.069Z,57.96
2018-05-01T08:06:54.904Z,57.19
2018-05-01T08:09:23.051Z,56.50
2018-05-01T08:11:51.123Z,56.64
2018-05-01T08:14:19.239Z,55.69
2018-05-01T08:17:08.229Z,56.44
2018-05-01T08:19:38.397Z,54.58
2018-05-01T08:22:10.887Z,55.27
2018-05-01T08:24:43.960Z,54.02
2018-05-01T08:27:12.858Z,54.10
2018-05-01T08:29:40.986Z,55.39
2018-05-01T08:32:09.768Z,54.56
2018-05-01T08:34:38.759Z,54.53
2018-05-01T08:37:06.643Z,55.06
2018-05-01T08:39:35.159Z,55.16
2018-05-01T08:42:03.541Z,53.49
2018-05-01T08:44:33.448Z,53.12
2018-05-01T08:47:01.938Z,51.75
2018-05-01T08:49:29.849Z,53.05
2018-05-01T08:51:57.592Z,52.43
2018-05-01T08:54:25.259Z,53.02
2018-05-01T08:56:53.320Z,51.96
2018-05-01T08:59:20.986Z,52.09
2018-05-01T09:01:49.201Z,53.36
2018-05-01T09:04:16.982Z,50.20
2018-05-01T09:06:45.021Z,50.40
2018-05-01T09:09:12.739Z,50.92
2018-05-01T09:11:40.452Z,51.56
2018-05-01T09:14:09.610Z,50.68
2018-05-01T09:16:37.297Z,49.75
2018-05-01T09:19:05.218Z,50.04
2018-05-01T09:21:32.912Z,47.74
2018-05-01T09:24:01.247Z,47.49
2018-05-01T09:26:29.559Z,47.74
2018-05-01T09:28:57.256Z,48.72
2018-05-01T09:31:25.371Z,49.06
2018-05-01T09:33:53.062Z,48.00
2018-05-01T09:36:20.868Z,48.63
2018-05-01T09:38:49.209Z,47.42
2018-05-01T09:41:16.987Z,47.44
2018-05-01T09:43:45.192Z,47.47
2018-05-01T09:46:14.046Z,47.02
2018-05-01T09:48:41.716Z,46.61
2018-05-01T09:51:10.004Z,47.84
2018-05-01T09:53:38.202Z,48.70
2018-05-01T09:56:06.420Z,49.82
2018-05-01T09:58:35.265Z,49.67
2018-05-01T10:01:04.073Z,49.27
2018-05-01T10:03:33.653Z,48.72
2018-05-01T10:09:43.283Z,50.27
2018-05-01T10:16:00.154Z,51.23
2018-05-01T10:18:38.071Z,50.12
2018-05-01T10:21:17.872Z,49.49
2018-05-01T10:24:03.603Z,49.72
2018-05-01T10:26:52.549Z,50.31
2018-05-01T10:29:29.860Z,47.90
2018-05-01T10:32:05.240Z,48.60
2018-05-01T10:34:34.697Z,49.31
2018-05-01T10:37:03.641Z,48.80
2018-05-01T10:39:32.367Z,48.24
2018-05-01T10:42:00.657Z,47.26
2018-05-01T10:44:28.873Z,45.94
2018-05-01T10:46:57.342Z,47.70
2018-05-01T10:49:25.609Z,47.83
2018-05-01T10:51:53.826Z,47.88
2018-05-01T10:54:22.462Z,47.77
2018-05-01T10:56:50.763Z,47.88
2018-05-01T10:59:18.973Z,47.88
2018-05-01T11:01:47.569Z,48.24
2018-05-01T11:04:15.811Z,47.52
2018-05-01T11:06:44.014Z,47.92
2018-05-01T11:09:12.782Z,46.60
2018-05-01T11:11:40.994Z,46.53
2018-05-01T11:14:09.173Z,46.98
2018-05-01T11:16:38.004Z,46.37
2018-05-01T11:19:06.786Z,46.46
2018-05-01T11:21:35.005Z,47.56
2018-05-01T11:24:03.242Z,47.13
2018-05-01T11:26:31.902Z,46.39
2018-05-01T11:29:00.111Z,45.13
2018-05-01T11:31:28.436Z,44.84
2018-05-01T11:33:57.102Z,44.85
2018-05-01T11:36:25.285Z,44.04
2018-05-01T11:38:53.552Z,44.07
2018-05-01T11:41:22.318Z,44.72
2018-05-01T11:43:50.573Z,44.09
2018-05-01T11:46:18.804Z,44.37
2018-05-01T11:48:47.434Z,45.59
2018-05-01T11:51:15.644Z,44.47
2018-05-01T11:53:44.982Z,44.19
2018-05-01T11:56:13.614Z,43.09
2018-05-01T11:58:41.840Z,41.74
2018-05-01T12:01:10.054Z,41.66
2018-05-01T12:03:38.590Z,42.09
2018-05-01T12:06:06.807Z,39.63
2018-05-01T12:08:34.986Z,38.61
2018-05-01T12:11:03.673Z,39.68
2018-05-01T12:13:31.892Z,38.42
2018-05-01T12:16:00.107Z,39.14
2018-05-01T12:18:29.008Z,37.40
2018-05-01T12:20:57.278Z,34.43
2018-05-01T12:23:25.485Z,32.46
2018-05-01T12:25:53.902Z,30.82
2018-05-01T12:28:22.131Z,30.37
2018-05-01T12:30:50.350Z,29.98
2018-05-01T12:33:19.139Z,29.44
2018-05-01T12:35:47.453Z,30.97
2018-05-01T12:38:15.650Z,31.96
2018-05-01T12:40:44.274Z,32.27
2018-05-01T12:43:12.541Z,31.33
2018-05-01T12:45:40.744Z,31.17
2018-05-01T12:48:09.456Z,29.69
2018-05-01T12:50:37.717Z,32.14
2018-05-01T12:53:05.937Z,31.14
2018-05-01T12:55:34.464Z,31.28
2018-05-01T12:58:02.679Z,31.88
2018-05-01T13:00:30.911Z,32.31
2018-05-01T13:02:59.571Z,31.37
2018-05-01T13:05:27.829Z,29.88
2018-05-01T13:07:56.059Z,28.75
2018-05-01T13:10:24.712Z,29.39
2018-05-01T13:12:53.005Z,30.35
2018-05-01T13:15:21.223Z,31.51
2018-05-01T13:17:49.795Z,31.79
2018-05-01T13:20:17.983Z,27.35
2018-05-01T13:22:46.202Z,28.40
2018-05-01T13:25:14.883Z,26.33
2018-05-01T13:27:43.086Z,25.14
2018-05-01T13:30:11.307Z,26.24
2018-05-01T13:32:39.831Z,26.91
2018-05-01T13:38:07.965Z,25.83
2018-05-01T13:40:36.803Z,26.48
2018-05-01T13:43:05.534Z,26.44
2018-05-01T13:45:33.725Z,27.86
2018-05-01T13:48:03.246Z,28.98
2018-05-01T13:50:31.583Z,25.81
2018-05-01T13:52:59.810Z,26.27
2018-05-01T13:55:28.831Z,27.41
2018-05-01T13:57:57.461Z,28.68
2018-05-01T14:00:25.739Z,29.07
2018-05-01T14:02:54.447Z,28.75
2018-05-01T14:05:23.409Z,28.86
2018-05-01T14:07:52.306Z,28.31
2018-05-01T14:10:20.534Z,29.54
2018-05-01T14:12:49.333Z,29.55
2018-05-01T14:15:18.182Z,30.38
2018-05-01T14:17:47.117Z,27.61
2018-05-01T14:20:15.411Z,28.12
2018-05-01T14:22:44.297Z,27.02
2018-05-01T14:25:13.347Z,26.78
2018-05-01T14:27:42.065Z,26.24
2018-05-01T14:30:10.293Z,23.98
2018-05-01T14:32:39.080Z,23.95
2018-05-01T14:35:07.889Z,22.60
2018-05-01T14:37:36.855Z,22.45
2018-05-01T14:40:05.153Z,21.76
2018-05-01T14:42:33.869Z,22.45
2018-05-01T14:45:02.852Z,23.16
2018-05-01T14:47:31.717Z,23.81
2018-05-01T14:52:34.383Z,23.73
2018-05-01T14:55:03.040Z,21.08
2018-05-01T14:57:31.625Z,22.49
2018-05-01T14:59:59.843Z,23.99
2018-05-01T15:02:28.775Z,23.57
2018-05-01T15:04:57.515Z,24.58
2018-05-01T15:07:26.556Z,24.86
2018-05-01T15:09:54.806Z,24.48
2018-05-01T15:12:23.659Z,26.09
2018-05-01T15:14:52.547Z,25.20
2018-05-01T15:17:21.487Z,26.48
2018-05-01T15:19:49.706Z,28.28
2018-05-01T15:22:18.887Z,26.92
2018-05-01T15:24:47.746Z,27.81
2018-05-01T15:27:16.392Z,28.53
2018-05-01T15:29:44.610Z,28.58
2018-05-01T15:32:13.473Z,29.59
2018-05-01T15:34:42.014Z,28.77
2018-05-01T15:37:10.298Z,30.13
2018-05-01T15:39:38.512Z,29.43
2018-05-01T15:42:07.103Z,29.89
2018-05-01T15:44:35.373Z,30.39
2018-05-01T15:47:03.566Z,30.93
2018-05-01T15:49:32.614Z,30.39
2018-05-01T15:52:01.563Z,30.21
2018-05-01T15:54:29.757Z,30.53
2018-05-01T15:56:58.581Z,30.98
2018-05-01T15:59:27.141Z,31.75
2018-05-01T16:01:55.426Z,31.72
2018-05-01T16:04:23.811Z,31.10
2018-05-01T16:06:52.813Z,31.95
2018-05-01T16:09:21.741Z,32.05
2018-05-01T16:11:51.047Z,32.33
2018-05-01T16:14:19.917Z,35.67
2018-05-01T16:16:48.984Z,33.11
2018-05-01T16:19:18.077Z,33.81
2018-05-01T16:21:46.594Z,33.09
2018-05-01T16:29:58.295Z,34.29
2018-05-01T16:32:42.319Z,34.41
2018-05-01T16:35:25.625Z,34.28
2018-05-01T16:38:22.771Z,34.41
2018-05-01T16:41:00.121Z,37.19
2018-05-01T16:44:07.533Z,35.24
2018-05-01T16:46:45.843Z,35.46
2018-05-01T16:54:47.382Z,35.83
2018-05-01T16:57:19.157Z,38.12
2018-05-01T16:59:49.490Z,35.83
2018-05-01T17:02:19.526Z,36.78
2018-05-01T17:04:50.354Z,36.69
2018-05-01T17:07:18.749Z,37.52
2018-05-01T17:09:48.570Z,37.12
2018-05-01T17:12:17.355Z,38.12
2018-05-01T17:14:45.924Z,38.34
2018-05-01T17:17:14.112Z,38.32
2018-05-01T17:19:43.348Z,38.37
2018-05-01T17:22:12.267Z,39.37
2018-05-01T17:24:41.015Z,39.59
2018-05-01T17:27:09.267Z,39.76
2018-05-01T17:29:38.131Z,40.37
2018-05-01T17:32:06.894Z,40.08
2018-05-01T17:34:35.927Z,41.37
2018-05-01T17:37:04.207Z,40.95
2018-05-01T17:39:32.979Z,41.17
2018-05-01T17:42:01.951Z,40.88
2018-05-01T17:44:30.866Z,40.45
2018-05-01T17:46:59.119Z,41.05
2018-05-01T17:49:28.848Z,41.58
2018-05-01T17:51:57.125Z,41.06
2018-05-01T17:54:25.951Z,41.52
2018-05-01T17:56:54.202Z,41.54
2018-05-01T17:59:22.819Z,41.95
2018-05-01T18:01:51.880Z,42.65
2018-05-01T18:04:20.792Z,42.39
2018-05-01T18:06:48.991Z,42.34
2018-05-01T18:09:17.888Z,42.66
2018-05-01T18:11:46.724Z,42.27
2018-05-01T18:14:15.630Z,42.42
2018-05-01T18:16:43.856Z,42.39
2018-05-01T18:19:12.768Z,43.34
2018-05-01T18:21:41.551Z,43.73
2018-05-01T18:24:10.726Z,42.28
2018-05-01T18:26:39.034Z,42.35
2018-05-01T18:29:07.712Z,42.90
2018-05-01T18:31:36.597Z,42.55
2018-05-01T18:34:05.640Z,43.57
2018-05-01T18:36:34.056Z,44.94
2018-05-01T18:39:02.752Z,42.99
2018-05-01T18:41:31.670Z,42.90
2018-05-01T18:43:59.936Z,43.69
2018-05-01T18:46:28.212Z,43.41
2018-05-01T18:48:57.199Z,43.71
2018-05-01T18:51:26.225Z,44.02
2018-05-01T18:53:54.590Z,44.53
2018-05-01T18:56:24.222Z,44.47
2018-05-01T18:58:54.630Z,44.33
2018-05-01T19:01:23.331Z,44.70
2018-05-01T19:03:54.791Z,44.54
2018-05-01T19:06:24.529Z,44.47
2018-05-01T19:08:53.198Z,44.86
2018-05-01T19:11:21.884Z,45.17
2018-05-01T19:13:50.962Z,45.71
2018-05-01T19:16:20.437Z,45.93
2018-05-01T19:18:49.312Z,46.31
2018-05-01T19:21:18.029Z,46.12
2018-05-01T19:23:46.286Z,46.12
2018-05-01T19:26:15.286Z,46.13
2018-05-01T19:28:43.969Z,46.64
2018-05-01T19:31:12.216Z,46.74
2018-05-01T19:33:41.017Z,46.78
2018-05-01T19:36:10.027Z,47.83
2018-05-01T19:38:38.845Z,47.67
2018-05-01T19:41:07.143Z,47.56
2018-05-01T19:43:36.240Z,48.10
2018-05-01T19:46:05.556Z,48.40
2018-05-01T19:48:35.228Z,48.79
2018-05-01T19:51:04.653Z,49.27
2018-05-01T19:53:33.951Z,49.51
2018-05-01T19:56:06.382Z,49.86
2018-05-01T19:58:35.273Z,50.30
2018-05-01T20:01:04.854Z,50.45
2018-05-01T20:03:34.379Z,50.41
2018-05-01T20:06:03.536Z,50.29
2018-05-01T20:08:32.219Z,50.52
2018-05-01T20:11:00.949Z,50.56
2018-05-01T20:13:33.444Z,51.09
2018-05-01T20:16:02.345Z,51.70
2018-05-01T20:18:31.226Z,51.98
2018-05-01T20:21:00.654Z,52.02
2018-05-01T20:23:29.752Z,52.36
2018-05-01T20:25:59.095Z,52.97
2018-05-01T20:28:28.662Z,53.21
2018-05-01T20:30:57.858Z,53.40
2018-05-01T20:33:26.624Z,53.72
2018-05-01T20:35:55.114Z,53.90
2018-05-01T20:38:24.449Z,53.85
2018-05-01T20:40:53.393Z,54.00
2018-05-01T20:43:22.232Z,54.12
2018-05-01T20:45:50.483Z,54.47
2018-05-01T20:48:19.263Z,54.59
2018-05-01T20:50:50.332Z,54.23
2018-05-01T20:53:18.561Z,54.26
2018-05-01T20:55:47.219Z,53.91
2018-05-01T20:58:15.425Z,54.20
2018-05-01T21:00:43.635Z,54.41
2018-05-01T21:03:12.258Z,55.14
2018-05-01T21:05:40.631Z,54.66
2018-05-01T21:08:09.402Z,54.60
2018-05-01T21:10:38.294Z,54.80
2018-05-01T21:13:06.566Z,54.81
2018-05-01T21:15:34.764Z,54.34
2018-05-01T21:18:03.553Z,53.81
2018-05-01T21:20:32.256Z,53.87
2018-05-01T21:23:00.472Z,53.87
2018-05-01T21:25:28.719Z,53.93
2018-05-01T21:27:57.407Z,54.35
2018-05-01T21:30:25.629Z,54.95
2018-05-01T21:32:53.843Z,55.12
2018-05-01T21:35:22.499Z,55.88
2018-05-01T21:37:50.713Z,56.44
2018-05-01T21:40:18.933Z,56.87
2018-05-01T21:42:47.639Z,56.86
2018-05-01T21:45:15.859Z,57.13
2018-05-01T21:47:44.081Z,57.03
2018-05-01T21:50:12.767Z,57.12
2018-05-01T21:52:41.028Z,57.11
2018-05-01T21:55:09.227Z,57.17
2018-05-01T21:57:37.953Z,56.78
2018-05-01T22:00:06.153Z,57.17
2018-05-01T22:02:35.005Z,57.39
2018-05-01T22:05:03.538Z,57.59
2018-05-01T22:07:31.805Z,57.49
2018-05-01T22:10:00.090Z,57.29
2018-05-01T22:12:28.616Z,57.41
2018-05-01T22:14:56.873Z,57.75
2018-05-01T22:17:25.181Z,57.92
2018-05-01T22:19:53.825Z,58.37
2018-05-01T22:22:22.047Z,58.61
2018-05-01T22:24:50.268Z,59.16
2018-05-01T22:27:18.864Z,59.62
2018-05-01T22:29:47.125Z,59.85
2018-05-01T22:32:15.377Z,60.22
2018-05-01T22:34:43.948Z,60.32
2018-05-01T22:37:12.160Z,60.49
2018-05-01T22:39:40.485Z,61.27
2018-05-01T22:42:09.205Z,61.78
2018-05-01T22:44:37.472Z,61.92
2018-05-01T22:47:05.749Z,62.02
2018-05-01T22:49:34.253Z,62.16
2018-05-01T22:52:02.466Z,62.26
2018-05-01T22:54:30.717Z,62.56
2018-05-01T22:56:59.322Z,62.58
2018-05-01T22:59:27.549Z,62.95
2018-05-01T23:01:55.747Z,63.05
2018-05-01T23:04:24.433Z,63.48
2018-05-01T23:06:52.668Z,63.45
2018-05-01T23:09:20.889Z,63.50
2018-05-01T23:11:49.803Z,63.50
2018-05-01T23:14:18.020Z,63.62
2018-05-01T23:16:46.298Z,63.87
2018-05-01T23:19:14.882Z,63.96
2018-05-01T23:21:43.126Z,64.32
2018-05-01T23:24:11.352Z,64.24
2018-05-01T23:26:40.146Z,64.49
2018-05-01T23:29:08.365Z,65.14
2018-05-01T23:31:36.563Z,65.29
2018-05-01T23:34:05.106Z,65.33
2018-05-01T23:36:33.395Z,65.42
2018-05-01T23:39:01.594Z,65.56
2018-05-01T23:41:30.261Z,65.74
2018-05-01T23:43:58.530Z,65.95
2018-05-01T23:46:26.763Z,65.98
2018-05-01T23:48:55.587Z,66.35
2018-05-01T23:51:24.266Z,66.51
2018-05-01T23:53:52.445Z,66.67
2018-05-01T23:56:20.624Z,66.68
2018-05-01T23:58:49.419Z,66.68
